Time;durP1;ratioP1;P1;durP2;ratioP2;P2;SDS_P1;SDS_P2;PMS_P1;PMS_P2;Temp;Humidity;BMP_temperature;BMP_pressure;BME280_temperature;BME280_humidity;BME280_pressure;Samples;Min_cycle;Max_cycle;Signal;HPM_P1;HPM_P2
2022/11/08 00:01:33;;;;;;;67.88;46.22;;;282.50;2278.40;;;;;;5133458;27;20494;-62
2022/11/08 00:04:07;;;;;;;73.05;45.58;;;282.50;2278.40;;;;;;5132728;27;20457;-62
2022/11/08 00:14:46;;;;;;;87.90;55.22;;;307.40;2304.00;;;;;;5132809;27;20042;-61
2022/11/08 00:17:14;;;;;;;86.28;51.38;;;307.60;2304.00;;;;;;5132921;27;20150;-62
2022/11/08 00:19:41;;;;;;;78.88;47.72;;;307.60;2304.00;;;;;;5132477;27;20059;-63
2022/11/08 00:22:06;;;;;;;100.93;57.85;;;307.60;2304.00;;;;;;5132444;27;20096;-62
2022/11/08 00:24:33;;;;;;;141.05;80.70;;;307.60;2304.00;;;;;;5132656;27;20449;-62
2022/11/08 00:27:03;;;;;;;66.63;44.55;;;307.60;2304.00;;;;;;5132238;27;20027;-63
2022/11/08 00:29:29;;;;;;;74.97;45.17;;;307.60;2304.00;;;;;;5132174;27;20051;-62
2022/11/08 00:31:54;;;;;;;85.53;52.60;;;307.40;2304.00;;;;;;5132632;27;20051;-62
2022/11/08 00:34:20;;;;;;;86.82;55.47;;;307.40;2304.00;;;;;;5132451;27;20147;-62
2022/11/08 00:36:46;;;;;;;79.93;47.90;;;307.30;2304.00;;;;;;5132273;27;20031;-62
2022/11/08 00:39:11;;;;;;;77.80;47.85;;;307.40;2304.00;;;;;;5132283;27;20460;-62
2022/11/08 00:41:37;;;;;;;74.07;45.65;;;307.50;2304.00;;;;;;5131806;27;20512;-62
2022/11/08 00:44:03;;;;;;;108.80;61.85;;;307.60;2304.00;;;;;;5132125;27;20084;-62
2022/11/08 00:46:29;;;;;;;75.25;47.20;;;307.50;2304.00;;;;;;5131819;27;20031;-62
2022/11/08 00:48:54;;;;;;;72.63;48.13;;;307.60;2304.00;;;;;;5132167;27;20035;-62
2022/11/08 00:51:20;;;;;;;80.25;50.22;;;307.60;2304.00;;;;;;5132052;27;20057;-62
2022/11/08 00:53:46;;;;;;;87.07;51.53;;;307.70;2304.00;;;;;;5131754;27;20037;-62
2022/11/08 00:56:12;;;;;;;80.70;54.47;;;307.70;2304.00;;;;;;5131967;27;20039;-64
2022/11/08 00:58:40;;;;;;;77.57;49.92;;;307.70;2304.00;;;;;;5131602;27;20484;-62
2022/11/08 01:01:17;;;;;;;84.25;51.20;;;307.70;2304.00;;;;;;5131844;27;20053;-61
2022/11/08 01:03:44;;;;;;;89.03;52.30;;;307.60;2304.00;;;;;;5131791;27;20469;-63
2022/11/08 01:06:11;;;;;;;81.30;51.47;;;307.60;2304.00;;;;;;5131440;27;20034;-63
2022/11/08 01:08:37;;;;;;;78.43;49.78;;;307.60;2304.00;;;;;;5131417;27;20063;-62
2022/11/08 01:11:07;;;;;;;70.57;44.55;;;307.70;2304.00;;;;;;5131808;27;20037;-62
2022/11/08 01:13:33;;;;;;;72.28;43.63;;;307.70;2304.00;;;;;;5131887;27;20099;-62
2022/11/08 01:16:09;;;;;;;72.32;45.88;;;307.60;2304.00;;;;;;5131456;27;20385;-62
2022/11/08 01:18:35;;;;;;;64.85;42.63;;;307.60;2304.00;;;;;;5131532;27;20027;-62
2022/11/08 01:21:02;;;;;;;65.47;41.67;;;307.60;2304.00;;;;;;5131629;27;20019;-62
2022/11/08 01:23:29;;;;;;;69.68;46.03;;;307.40;2304.00;;;;;;5131253;27;20016;-62
2022/11/08 01:25:55;;;;;;;76.63;46.28;;;307.50;2304.00;;;;;;5131192;27;20034;-60
2022/11/08 01:28:21;;;;;;;70.90;45.47;;;307.50;2304.00;;;;;;5131381;27;20027;-62
2022/11/08 01:30:46;;;;;;;65.00;42.45;;;307.50;2304.00;;;;;;5131193;27;20027;-63
2022/11/08 01:33:13;;;;;;;79.65;47.65;;;307.60;2304.00;;;;;;5131449;27;20130;-62
2022/11/08 01:35:42;;;;;;;66.25;42.55;;;307.60;2304.00;;;;;;5131075;27;20023;-62
2022/11/08 01:38:09;;;;;;;60.95;38.22;;;307.60;2304.00;;;;;;5134329;27;20043;-62
2022/11/08 01:40:45;;;;;;;63.13;39.38;;;307.70;2304.00;;;;;;5151534;27;20018;-61
2022/11/08 01:43:29;;;;;;;58.35;37.88;;;307.70;2304.00;;;;;;5151721;27;20575;-62
2022/11/08 01:46:49;;;;;;;71.80;44.70;;;307.70;2304.00;;;;;;5151674;27;20479;-63
2022/11/08 01:49:42;;;;;;;90.82;63.05;;;307.70;2304.00;;;;;;5068233;28;20454;-62
2022/11/08 01:52:47;;;;;;;80.80;46.30;;;307.50;2304.00;;;;;;5067653;28;20509;-64
2022/11/08 01:55:33;;;;;;;89.88;56.33;;;307.50;2304.00;;;;;;5028023;28;20029;-63
2022/11/08 01:58:09;;;;;;;90.05;53.42;;;307.40;2304.00;;;;;;5027523;28;20045;-63
2022/11/08 02:00:38;;;;;;;92.35;54.58;;;307.40;2304.00;;;;;;5027650;28;20037;-60
2022/11/08 02:03:09;;;;;;;77.43;50.13;;;307.40;2304.00;;;;;;5027772;28;20075;-61
2022/11/08 02:05:35;;;;;;;80.85;50.63;;;307.40;2304.00;;;;;;5027731;28;20033;-62
2022/11/08 02:08:03;;;;;;;90.32;51.13;;;307.50;2304.00;;;;;;5030395;28;20369;-62
2022/11/08 02:10:37;;;;;;;89.78;53.95;;;307.50;2304.00;;;;;;5028220;28;20068;-64
2022/11/08 02:13:07;;;;;;;84.03;52.33;;;307.40;2304.00;;;;;;5029867;28;20079;-62
2022/11/08 02:15:32;;;;;;;76.55;51.60;;;307.40;2304.00;;;;;;5030918;28;20037;-63
2022/11/08 02:17:58;;;;;;;88.18;50.60;;;307.40;2304.00;;;;;;5030823;28;20052;-63
2022/11/08 02:20:24;;;;;;;83.28;50.92;;;307.40;2304.00;;;;;;5029902;28;20041;-63
2022/11/08 02:23:09;;;;;;;85.03;49.85;;;307.40;2304.00;;;;;;5050011;28;20039;-61
2022/11/08 02:25:34;;;;;;;71.28;46.95;;;307.40;2304.00;;;;;;5088652;28;20028;-62
2022/11/08 02:28:00;;;;;;;77.50;47.22;;;307.50;2304.00;;;;;;5093682;27;20032;-63
2022/11/08 02:30:36;;;;;;;67.40;43.70;;;307.60;2304.00;;;;;;5155234;27;20019;-62
2022/11/08 02:33:20;;;;;;;72.72;43.72;;;307.60;2304.00;;;;;;5155343;27;20491;-61
2022/11/08 02:35:50;;;;;;;68.53;44.58;;;307.60;2304.00;;;;;;5155682;27;20054;-60
2022/11/08 02:38:16;;;;;;;74.80;44.05;;;307.60;2304.00;;;;;;5155356;27;20056;-62
2022/11/08 02:40:54;;;;;;;63.63;42.97;;;307.70;2304.00;;;;;;5155184;27;20050;-64
2022/11/08 02:43:20;;;;;;;72.05;45.25;;;307.60;2304.00;;;;;;5155101;27;20031;-62
2022/11/08 02:45:46;;;;;;;71.40;44.97;;;307.70;2304.00;;;;;;5155268;27;20102;-61
2022/11/08 02:48:12;;;;;;;71.57;44.83;;;307.60;2304.00;;;;;;5155210;27;20029;-62
2022/11/08 02:50:38;;;;;;;72.15;47.22;;;307.60;2304.00;;;;;;5154854;27;20031;-62
2022/11/08 02:53:05;;;;;;;68.72;46.33;;;307.70;2304.00;;;;;;5155039;27;20031;-63
2022/11/08 02:55:32;;;;;;;70.82;44.67;;;307.60;2304.00;;;;;;5154857;27;20030;-62
2022/11/08 02:57:57;;;;;;;78.68;50.72;;;307.50;2304.00;;;;;;5154532;27;20479;-62
2022/11/08 03:00:23;;;;;;;78.85;49.47;;;307.40;2304.00;;;;;;5154878;27;20072;-62
2022/11/08 03:02:53;;;;;;;79.32;48.80;;;307.40;2304.00;;;;;;5154777;27;20060;-64
2022/11/08 03:05:19;;;;;;;77.43;48.83;;;307.40;2304.00;;;;;;5154656;27;20071;-61
2022/11/08 03:07:45;;;;;;;73.35;47.10;;;307.50;2304.00;;;;;;5155056;27;20443;-62
2022/11/08 03:10:12;;;;;;;81.47;48.45;;;307.50;2304.00;;;;;;5154536;27;20540;-63
2022/11/08 03:12:38;;;;;;;73.18;46.50;;;307.50;2304.00;;;;;;5154444;27;20022;-62
2022/11/08 03:15:06;;;;;;;76.05;48.33;;;307.50;2304.00;;;;;;5154726;27;20030;-62
2022/11/08 03:17:32;;;;;;;70.75;45.33;;;307.50;2304.00;;;;;;5153442;27;20082;-64
2022/11/08 03:19:57;;;;;;;77.70;46.50;;;307.50;2304.00;;;;;;5153980;27;20102;-63
2022/11/08 03:22:23;;;;;;;82.13;46.95;;;307.50;2304.00;;;;;;5154431;27;20379;-62
2022/11/08 03:24:49;;;;;;;75.47;46.65;;;307.50;2304.00;;;;;;5154380;27;20022;-63
2022/11/08 03:27:15;;;;;;;72.63;44.72;;;307.60;2304.00;;;;;;5154652;27;20030;-62
2022/11/08 03:29:41;;;;;;;69.47;43.83;;;307.60;2304.00;;;;;;5154037;27;20105;-63
2022/11/08 03:32:06;;;;;;;73.28;45.15;;;307.60;2304.00;;;;;;5154333;27;20061;-62
2022/11/08 03:34:32;;;;;;;71.85;45.08;;;307.60;2304.00;;;;;;5154417;27;20021;-63
2022/11/08 03:36:58;;;;;;;73.65;44.97;;;307.60;2304.00;;;;;;5154005;27;20030;-62
2022/11/08 03:39:24;;;;;;;65.57;43.28;;;307.60;2304.00;;;;;;5135290;27;20035;-62
2022/11/08 03:41:49;;;;;;;79.05;48.63;;;307.70;2304.00;;;;;;5153870;27;20548;-62
2022/11/08 03:44:15;;;;;;;69.13;43.53;;;307.70;2304.00;;;;;;5153856;27;20102;-61
2022/11/08 03:46:41;;;;;;;70.60;45.20;;;307.60;2304.00;;;;;;5154288;27;20031;-61
2022/11/08 03:49:06;;;;;;;70.90;44.67;;;307.60;2304.00;;;;;;5154058;27;20042;-61
2022/11/08 03:51:32;;;;;;;72.68;46.85;;;307.60;2304.00;;;;;;5153942;27;20030;-62
2022/11/08 03:53:58;;;;;;;78.05;46.30;;;307.60;2304.00;;;;;;5153758;27;20368;-62
2022/11/08 03:56:23;;;;;;;74.13;48.08;;;307.60;2304.00;;;;;;5153938;27;20027;-63
2022/11/08 03:58:49;;;;;;;86.38;50.88;;;307.60;2304.00;;;;;;5153559;27;20477;-61
2022/11/08 04:01:15;;;;;;;74.78;46.05;;;307.60;2304.00;;;;;;5154032;27;20026;-61
2022/11/08 04:03:41;;;;;;;75.05;46.70;;;307.60;2304.00;;;;;;5153840;27;20054;-60
2022/11/08 04:06:07;;;;;;;75.72;42.30;;;307.60;2304.00;;;;;;5153707;27;20019;-65
2022/11/08 04:08:32;;;;;;;73.25;44.88;;;307.50;2304.00;;;;;;5153530;27;20022;-62
2022/11/08 04:16:32;;;;;;;93.28;59.38;;;307.50;2304.00;;;;;;5153758;27;20161;-63
2022/11/08 04:21:48;;;;;;;89.47;54.53;;;307.40;2304.00;;;;;;5154012;27;20536;-65
2022/11/08 04:24:14;;;;;;;85.22;53.63;;;307.50;2304.00;;;;;;5153525;27;20506;-67
2022/11/08 04:26:40;;;;;;;89.82;55.15;;;307.50;2304.00;;;;;;5153273;27;20029;-65
2022/11/08 04:29:07;;;;;;;110.93;68.97;;;307.50;2304.00;;;;;;5152834;27;20019;-63
2022/11/08 04:31:33;;;;;;;126.90;75.40;;;307.50;2304.00;;;;;;5134907;27;20410;-63
2022/11/08 04:33:59;;;;;;;113.22;71.75;;;307.50;2304.00;;;;;;5152998;27;20030;-64
2022/11/08 04:36:25;;;;;;;100.45;62.53;;;307.40;2304.00;;;;;;5153108;27;20035;-63
2022/11/08 04:38:51;;;;;;;102.85;66.45;;;307.60;2304.00;;;;;;5152634;27;20023;-62
2022/11/08 04:41:20;;;;;;;85.75;52.38;;;307.50;2304.00;;;;;;5152950;27;20070;-62
2022/11/08 04:43:46;;;;;;;83.40;52.33;;;307.50;2304.00;;;;;;5153026;27;20018;-60
2022/11/08 04:46:14;;;;;;;89.57;51.40;;;307.50;2304.00;;;;;;5152937;27;20080;-63
2022/11/08 04:48:41;;;;;;;88.50;53.90;;;307.60;2304.00;;;;;;5152586;27;20042;-63
2022/11/08 04:51:13;;;;;;;95.70;55.17;;;307.50;2304.00;;;;;;5152577;27;20022;-63
2022/11/08 04:53:39;;;;;;;119.13;71.20;;;307.50;2304.00;;;;;;5152448;27;20026;-63
2022/11/08 04:56:07;;;;;;;93.32;54.10;;;307.60;2304.00;;;;;;5152818;27;20023;-63
2022/11/08 04:58:35;;;;;;;97.78;58.45;;;307.60;2304.00;;;;;;5152476;27;20030;-63
2022/11/08 05:01:02;;;;;;;100.30;60.15;;;307.60;2304.00;;;;;;5152430;27;20376;-59
2022/11/08 05:03:29;;;;;;;97.15;55.03;;;307.60;2304.00;;;;;;5152285;27;20029;-64
2022/11/08 05:05:55;;;;;;;93.25;54.95;;;307.60;2304.00;;;;;;5152608;27;20536;-62
2022/11/08 05:08:21;;;;;;;86.82;50.33;;;307.60;2304.00;;;;;;5152260;27;20487;-62
2022/11/08 05:10:46;;;;;;;92.78;54.75;;;307.60;2304.00;;;;;;5152542;27;20027;-61
2022/11/08 05:13:12;;;;;;;84.20;52.08;;;307.60;2304.00;;;;;;5152651;27;20101;-62
2022/11/08 05:15:37;;;;;;;91.45;52.28;;;307.60;2304.00;;;;;;5151998;27;20463;-62
2022/11/08 05:18:03;;;;;;;91.78;54.67;;;307.60;2304.00;;;;;;5152272;27;20041;-62
2022/11/08 05:23:25;;;;;;;89.15;51.92;;;307.60;2304.00;;;;;;5152699;27;20079;-63
2022/11/08 05:25:54;;;;;;;90.95;52.83;;;307.60;2304.00;;;;;;5152014;27;20027;-62
2022/11/08 05:28:20;;;;;;;79.32;46.22;;;307.70;2304.00;;;;;;5151778;27;20038;-62
2022/11/08 05:30:54;;;;;;;91.40;53.25;;;307.70;2304.00;;;;;;5152050;27;20030;-60
2022/11/08 05:33:20;;;;;;;86.05;50.83;;;307.60;2304.00;;;;;;5151904;27;20050;-63
2022/11/08 05:35:46;;;;;;;79.38;51.72;;;307.70;2304.00;;;;;;5151742;27;20023;-61
2022/11/08 05:38:12;;;;;;;83.72;51.75;;;307.70;2304.00;;;;;;5151323;27;20087;-61
2022/11/08 05:40:38;;;;;;;93.63;57.60;;;307.70;2304.00;;;;;;5139894;27;20038;-63
2022/11/08 05:43:03;;;;;;;82.75;46.50;;;307.70;2304.00;;;;;;5133747;27;20027;-63
2022/11/08 05:45:29;;;;;;;73.82;45.08;;;307.80;2304.00;;;;;;5131806;27;20026;-63
2022/11/08 05:47:56;;;;;;;72.45;43.80;;;307.70;2304.00;;;;;;5145007;27;20050;-62
2022/11/08 05:50:23;;;;;;;75.40;47.58;;;307.60;2304.00;;;;;;5151585;27;20029;-62
2022/11/08 05:52:52;;;;;;;79.65;45.95;;;307.70;2304.00;;;;;;5151513;27;20529;-62
2022/11/08 05:55:18;;;;;;;78.03;46.20;;;307.70;2304.00;;;;;;5151724;27;20018;-62
2022/11/08 05:57:43;;;;;;;71.45;43.42;;;307.80;2304.00;;;;;;5151836;27;20524;-64
2022/11/08 06:00:11;;;;;;;62.80;40.58;;;307.80;2304.00;;;;;;5151453;27;20361;-60
2022/11/08 06:02:36;;;;;;;71.25;43.40;;;307.80;2304.00;;;;;;5151489;27;20025;-59
2022/11/08 06:05:04;;;;;;;69.15;41.47;;;307.80;2304.00;;;;;;5142359;27;20016;-59
2022/11/08 06:07:30;;;;;;;65.72;41.15;;;307.80;2304.00;;;;;;5138899;27;20054;-64
2022/11/08 06:09:55;;;;;;;64.78;38.78;;;307.80;2304.00;;;;;;5140615;27;20099;-64
2022/11/08 06:12:21;;;;;;;65.70;40.80;;;307.80;2304.00;;;;;;5141877;27;20027;-64
2022/11/08 06:14:47;;;;;;;58.50;35.97;;;307.80;2304.00;;;;;;5139762;27;20022;-64
2022/11/08 06:17:12;;;;;;;60.63;39.03;;;307.80;2304.00;;;;;;5140800;27;20045;-63
2022/11/08 06:19:38;;;;;;;66.65;38.22;;;307.80;2304.00;;;;;;5141107;27;20041;-61
2022/11/08 06:22:04;;;;;;;61.08;40.20;;;307.90;2304.00;;;;;;5142577;27;20503;-63
2022/11/08 06:24:29;;;;;;;67.22;42.10;;;307.90;2304.00;;;;;;5151548;27;20019;-65
2022/11/08 06:26:56;;;;;;;71.60;42.33;;;307.90;2304.00;;;;;;5151455;27;20058;-64
2022/11/08 06:29:22;;;;;;;63.65;41.78;;;307.90;2304.00;;;;;;5151237;27;20030;-64
2022/11/08 06:31:48;;;;;;;70.68;43.13;;;308.00;2304.00;;;;;;5142655;27;20031;-59
2022/11/08 06:34:13;;;;;;;71.00;45.00;;;308.10;2304.00;;;;;;5142496;27;20055;-62
2022/11/08 06:36:39;;;;;;;87.32;53.88;;;308.10;2304.00;;;;;;5136176;27;20039;-59
2022/11/08 06:39:05;;;;;;;95.57;61.85;;;308.10;2304.00;;;;;;5135770;27;20024;-59
2022/11/08 06:41:32;;;;;;;99.35;63.58;;;308.10;2304.00;;;;;;5130560;28;20046;-63
2022/11/08 06:43:58;;;;;;;90.70;59.47;;;308.00;2304.00;;;;;;5133834;27;20041;-65
2022/11/08 06:46:24;;;;;;;90.40;58.97;;;308.10;2304.00;;;;;;5138669;27;20075;-63
2022/11/08 06:48:50;;;;;;;85.43;55.92;;;332.80;2329.60;;;;;;5140885;27;20473;-60
2022/11/08 06:51:16;;;;;;;88.55;52.70;;;332.90;2329.60;;;;;;5139991;27;20030;-61
2022/11/08 06:53:45;;;;;;;75.55;50.15;;;332.90;2329.60;;;;;;5144850;27;20552;-59
2022/11/08 06:56:11;;;;;;;75.38;49.47;;;333.00;2329.60;;;;;;5142374;27;20041;-60
2022/11/08 06:58:37;;;;;;;80.65;51.65;;;333.00;2329.60;;;;;;5143781;27;20052;-63
2022/11/08 07:01:08;;;;;;;92.95;59.22;;;333.10;2329.60;;;;;;5140456;27;20098;-65
2022/11/08 07:03:34;;;;;;;86.30;57.33;;;333.10;2329.60;;;;;;5134203;27;20047;-64
2022/11/08 07:06:06;;;;;;;92.28;61.70;;;333.10;2329.60;;;;;;5133959;27;20107;-64
2022/11/08 07:08:32;;;;;;;108.20;75.13;;;333.20;2329.60;;;;;;5134019;27;20054;-65
2022/11/08 07:10:58;;;;;;;121.32;82.80;;;333.20;2329.60;;;;;;5133808;27;20027;-65
2022/11/08 07:13:24;;;;;;;131.27;95.70;;;333.10;2329.60;;;;;;5134118;27;20038;-65
2022/11/08 07:15:50;;;;;;;134.70;100.40;;;333.30;2329.60;;;;;;5133861;27;20019;-64
2022/11/08 07:18:17;;;;;;;109.13;79.95;;;333.30;2329.60;;;;;;5134045;27;20028;-63
2022/11/08 07:20:43;;;;;;;116.85;84.28;;;333.20;2329.60;;;;;;5134055;27;20034;-63
2022/11/08 07:23:10;;;;;;;108.75;83.03;;;333.20;2329.60;;;;;;5133879;27;20118;-64
2022/11/08 07:25:36;;;;;;;118.55;83.90;;;333.30;2329.60;;;;;;5133977;27;20030;-63
2022/11/08 07:28:04;;;;;;;115.93;83.40;;;333.20;2329.60;;;;;;5133937;27;20031;-66
2022/11/08 07:30:32;;;;;;;125.53;83.53;;;333.30;2329.60;;;;;;5133640;27;20465;-64
2022/11/08 07:32:57;;;;;;;121.13;84.22;;;333.40;2329.60;;;;;;5133531;27;20027;-64
2022/11/08 07:35:26;;;;;;;120.97;84.45;;;333.50;2329.60;;;;;;5133598;27;20026;-62
2022/11/08 07:37:52;;;;;;;123.85;90.93;;;333.70;2329.60;;;;;;5133456;27;20066;-65
2022/11/08 07:40:18;;;;;;;116.47;86.20;;;333.70;2329.60;;;;;;5133184;27;20027;-62
2022/11/08 07:42:44;;;;;;;117.53;85.60;;;333.70;2329.60;;;;;;5133603;27;20499;-62
2022/11/08 07:45:10;;;;;;;126.97;87.25;;;333.60;2329.60;;;;;;5133274;27;20055;-62
2022/11/08 07:47:36;;;;;;;122.47;90.63;;;333.70;2329.60;;;;;;5133227;27;20027;-62
2022/11/08 07:50:02;;;;;;;110.10;74.00;;;358.40;2329.60;;;;;;5133289;27;20023;-64
2022/11/08 07:52:28;;;;;;;91.90;72.15;;;358.50;2329.60;;;;;;5133195;27;20110;-61
2022/11/08 07:54:54;;;;;;;112.60;74.47;;;358.60;2329.60;;;;;;5133625;27;20102;-64
2022/11/08 07:57:20;;;;;;;111.18;75.15;;;358.70;2329.60;;;;;;5132905;27;20038;-60
2022/11/08 07:59:45;;;;;;;103.20;68.80;;;358.70;2329.60;;;;;;5133273;27;20027;-59
2022/11/08 08:02:12;;;;;;;137.98;99.00;;;358.70;2329.60;;;;;;5133100;27;20027;-60
2022/11/08 08:04:38;;;;;;;126.20;89.13;;;358.80;2329.60;;;;;;5132082;27;20027;-60
2022/11/08 08:07:04;;;;;;;105.18;74.13;;;358.90;2329.60;;;;;;5138496;27;20038;-65
2022/11/08 08:09:33;;;;;;;102.10;71.97;;;359.00;2329.60;;;;;;5139592;27;20023;-60
2022/11/08 08:11:59;;;;;;;128.00;93.32;;;359.10;2329.60;;;;;;5152710;27;20031;-65
2022/11/08 08:14:24;;;;;;;121.60;80.25;;;359.00;2329.60;;;;;;5153601;27;20610;-68
2022/11/08 08:16:50;;;;;;;119.82;77.15;;;358.70;2329.60;;;;;;5153067;27;20031;-66
2022/11/08 08:19:16;;;;;;;132.65;86.22;;;358.50;2329.60;;;;;;5153484;27;20075;-62
2022/11/08 08:21:42;;;;;;;139.20;88.45;;;358.70;2329.60;;;;;;5153514;27;20023;-68
2022/11/08 08:24:07;;;;;;;131.77;91.78;;;358.90;2329.60;;;;;;5153488;27;20850;-65
2022/11/08 08:26:33;;;;;;;126.00;84.45;;;358.80;2329.60;;;;;;5153569;27;20023;-67
2022/11/08 08:28:59;;;;;;;138.20;92.85;;;358.70;2329.60;;;;;;5153089;27;20026;-67
2022/11/08 08:31:25;;;;;;;139.27;89.35;;;358.80;2329.60;;;;;;5153390;27;20023;-67
2022/11/08 08:33:50;;;;;;;125.15;80.32;;;358.80;2329.60;;;;;;5153058;27;20433;-66
2022/11/08 08:36:16;;;;;;;96.90;67.28;;;359.00;2329.60;;;;;;5152493;27;20019;-64
2022/11/08 08:38:42;;;;;;;91.85;61.80;;;359.10;2329.60;;;;;;5152886;27;20070;-67
2022/11/08 08:41:07;;;;;;;95.40;59.53;;;359.10;2329.60;;;;;;5152765;27;20046;-61
2022/11/08 08:43:33;;;;;;;121.57;85.90;;;359.30;2329.60;;;;;;5153063;27;20102;-61
2022/11/08 08:46:04;;;;;;;90.88;60.88;;;384.10;2329.60;;;;;;5133988;27;20038;-61
2022/11/08 08:48:30;;;;;;;91.13;59.75;;;384.10;2329.60;;;;;;5152787;27;20019;-67
2022/11/08 08:50:56;;;;;;;82.57;55.50;;;359.20;2329.60;;;;;;5152711;27;20045;-60
2022/11/08 08:53:22;;;;;;;88.25;57.45;;;384.10;2329.60;;;;;;5152986;27;20054;-67
2022/11/08 08:55:51;;;;;;;104.93;66.80;;;384.30;2329.60;;;;;;5152777;27;20026;-64
2022/11/08 08:58:17;;;;;;;83.40;55.63;;;384.90;2329.60;;;;;;5152708;27;20387;-61
2022/11/08 09:00:43;;;;;;;72.95;45.50;;;409.70;2355.20;;;;;;5152452;27;20103;-68
2022/11/08 09:03:09;;;;;;;69.13;45.58;;;384.80;2329.60;;;;;;5152490;27;20068;-67
2022/11/08 09:05:36;;;;;;;70.82;46.95;;;409.70;2355.20;;;;;;5152674;27;20030;-67
2022/11/08 09:08:02;;;;;;;65.10;42.38;;;410.00;2355.20;;;;;;5152415;27;20533;-68
2022/11/08 09:10:28;;;;;;;75.18;49.72;;;384.90;2329.60;;;;;;5152663;27;20027;-67
2022/11/08 09:12:54;;;;;;;69.30;45.33;;;409.60;2355.20;;;;;;5152398;27;20026;-68
2022/11/08 09:15:20;;;;;;;68.28;45.17;;;410.10;2355.20;;;;;;5152147;27;20452;-70
2022/11/08 09:17:46;;;;;;;58.92;40.15;;;410.30;2355.20;;;;;;5152543;27;20031;-65
2022/11/08 09:20:13;;;;;;;68.70;44.53;;;410.20;2355.20;;;;;;5152579;27;20046;-61
2022/11/08 09:22:39;;;;;;;71.70;47.67;;;410.50;2355.20;;;;;;5150067;27;20027;-60
2022/11/08 09:25:05;;;;;;;57.83;39.92;;;435.30;2355.20;;;;;;5150842;27;20084;-59
2022/11/08 09:27:31;;;;;;;66.90;45.63;;;409.70;2355.20;;;;;;5150584;27;20031;-62
2022/11/08 09:30:00;;;;;;;63.85;43.67;;;409.70;2355.20;;;;;;5150506;27;20042;-59
2022/11/08 09:32:28;;;;;;;70.60;46.08;;;409.90;2355.20;;;;;;5150659;27;20097;-62
2022/11/08 09:34:55;;;;;;;60.08;40.10;;;410.20;2355.20;;;;;;5150010;27;20525;-60
2022/11/08 09:37:22;;;;;;;50.90;37.42;;;435.30;2355.20;;;;;;5150290;27;20661;-64
2022/11/08 09:39:47;;;;;;;58.88;40.88;;;435.20;2355.20;;;;;;5150143;27;20083;-64
2022/11/08 09:42:22;;;;;;;60.50;41.03;;;435.20;2355.20;;;;;;5150284;27;20050;-65
2022/11/08 09:45:03;;;;;;;74.03;48.95;;;435.20;2355.20;;;;;;5150148;27;20037;-66
2022/11/08 09:47:37;;;;;;;69.55;46.80;;;435.70;2355.20;;;;;;5152317;27;20516;-66
2022/11/08 09:50:17;;;;;;;59.20;39.20;;;436.10;2355.20;;;;;;5152094;27;20023;-59
2022/11/08 09:52:48;;;;;;;80.90;48.78;;;435.60;2355.20;;;;;;5151744;27;20551;-59
2022/11/08 09:55:38;;;;;;;87.57;57.90;;;435.80;2355.20;;;;;;5152076;27;20376;-61
2022/11/08 09:58:21;;;;;;;68.00;43.88;;;461.20;2380.80;;;;;;5151900;27;20031;-65
2022/11/08 10:00:49;;;;;;;56.53;39.10;;;461.30;2380.80;;;;;;5151964;27;20417;-59
2022/11/08 10:03:16;;;;;;;59.08;45.83;;;461.10;2380.80;;;;;;5152090;27;20035;-65
2022/11/08 10:06:07;;;;;;;50.60;37.63;;;461.70;2380.80;;;;;;5151768;27;20029;-63
2022/11/08 10:09:00;;;;;;;52.38;39.83;;;461.20;2380.80;;;;;;5151556;27;20019;-66
2022/11/08 10:11:50;;;;;;;50.47;37.50;;;436.00;2355.20;;;;;;5151361;27;20038;-64
2022/11/08 10:14:34;;;;;;;48.47;35.95;;;460.90;2380.80;;;;;;5151553;27;20031;-59
2022/11/08 10:17:16;;;;;;;45.30;32.67;;;461.00;2380.80;;;;;;5151263;27;20031;-65
2022/11/08 10:20:12;;;;;;;45.75;33.45;;;461.00;2380.80;;;;;;5151505;27;20038;-64
2022/11/08 10:23:12;;;;;;;48.67;33.83;;;436.10;2355.20;;;;;;5146284;27;20038;-64
2022/11/08 10:25:49;;;;;;;49.28;32.63;;;435.80;2355.20;;;;;;5151451;27;20144;-64
2022/11/08 10:28:18;;;;;;;48.80;32.38;;;410.50;2355.20;;;;;;5154330;27;20027;-62
2022/11/08 10:30:48;;;;;;;47.83;29.17;;;410.50;2355.20;;;;;;5155811;27;20019;-65
2022/11/08 10:33:14;;;;;;;39.03;26.27;;;410.50;2355.20;;;;;;5155766;27;20046;-58
2022/11/08 10:35:45;;;;;;;45.60;31.25;;;410.00;2355.20;;;;;;5155478;27;20495;-65
2022/11/08 10:38:20;;;;;;;43.45;30.85;;;409.90;2355.20;;;;;;5155265;27;20038;-62
2022/11/08 10:40:56;;;;;;;55.83;37.08;;;410.00;2355.20;;;;;;5155330;27;20700;-65
2022/11/08 10:43:37;;;;;;;55.65;39.22;;;409.90;2355.20;;;;;;5155549;27;20022;-65
2022/11/08 10:46:03;;;;;;;56.97;34.22;;;410.30;2355.20;;;;;;5155261;27;20022;-64
2022/11/08 10:48:32;;;;;;;54.60;36.08;;;410.20;2355.20;;;;;;5154999;27;20387;-64
2022/11/08 10:50:58;;;;;;;50.58;31.38;;;410.50;2355.20;;;;;;5155323;27;20026;-64
2022/11/08 10:53:27;;;;;;;38.15;27.05;;;410.30;2355.20;;;;;;5155152;27;20045;-65
2022/11/08 10:56:01;;;;;;;42.55;26.33;;;410.20;2355.20;;;;;;5155338;27;20071;-65
2022/11/08 10:58:41;;;;;;;38.92;26.33;;;410.20;2355.20;;;;;;5154955;27;20062;-63
2022/11/08 11:01:17;;;;;;;37.42;26.55;;;410.30;2355.20;;;;;;5154891;27;20030;-63
2022/11/08 11:03:45;;;;;;;43.70;29.60;;;410.10;2355.20;;;;;;5155078;27;20022;-66
2022/11/08 11:06:31;;;;;;;37.72;25.60;;;410.20;2355.20;;;;;;5155064;27;20019;-66
2022/11/08 11:09:02;;;;;;;36.75;25.20;;;410.30;2355.20;;;;;;5155219;27;20495;-61
2022/11/08 11:11:31;;;;;;;45.13;29.45;;;410.20;2355.20;;;;;;5154723;27;20018;-64
2022/11/08 11:14:22;;;;;;;41.08;28.10;;;410.10;2355.20;;;;;;5154491;27;20357;-61
2022/11/08 11:17:02;;;;;;;32.97;23.75;;;410.10;2355.20;;;;;;5050319;28;20036;-61
2022/11/08 11:19:28;;;;;;;30.35;22.00;;;410.10;2355.20;;;;;;5050550;28;20445;-64
2022/11/08 11:22:06;;;;;;;36.88;24.05;;;410.00;2355.20;;;;;;5050621;28;20116;-66
2022/11/08 11:24:34;;;;;;;30.40;20.95;;;410.00;2355.20;;;;;;5050860;28;20029;-64
2022/11/08 11:27:06;;;;;;;43.50;27.42;;;410.00;2355.20;;;;;;5050367;28;20053;-57
2022/11/08 11:29:37;;;;;;;42.75;30.13;;;410.20;2355.20;;;;;;5050694;28;20028;-66
2022/11/08 11:32:33;;;;;;;33.60;21.63;;;410.00;2355.20;;;;;;5050464;28;20017;-64
2022/11/08 11:35:02;;;;;;;32.20;22.75;;;410.40;2355.20;;;;;;5050192;28;20107;-64
2022/11/08 11:37:37;;;;;;;29.50;22.27;;;410.30;2355.20;;;;;;5049995;28;20033;-65
2022/11/08 11:40:09;;;;;;;34.30;24.48;;;410.40;2355.20;;;;;;5048979;28;20036;-65
2022/11/08 11:43:05;;;;;;;33.95;20.45;;;410.30;2355.20;;;;;;5050110;28;20110;-64
2022/11/08 11:46:14;;;;;;;24.90;18.67;;;410.20;2355.20;;;;;;5049945;28;20541;-65
2022/11/08 11:48:54;;;;;;;33.17;21.35;;;410.00;2355.20;;;;;;4981721;28;20030;-56
2022/11/08 11:51:24;;;;;;;27.45;19.70;;;410.00;2355.20;;;;;;4976655;28;20066;-64
2022/11/08 11:53:50;;;;;;;27.80;20.88;;;410.00;2355.20;;;;;;5011470;28;20475;-64
2022/11/08 11:56:57;;;;;;;32.78;22.17;;;410.10;2355.20;;;;;;5038302;28;20044;-57
2022/11/08 11:59:29;;;;;;;32.47;26.15;;;410.00;2355.20;;;;;;4990784;28;20030;-59
2022/11/08 12:02:28;;;;;;;30.55;22.55;;;410.00;2355.20;;;;;;4990526;28;20218;-58
2022/11/08 12:05:05;;;;;;;26.67;19.38;;;410.00;2355.20;;;;;;4990578;28;20030;-56
2022/11/08 12:07:35;;;;;;;32.00;22.30;;;410.00;2355.20;;;;;;4990364;28;20031;-58
2022/11/08 12:10:07;;;;;;;35.05;24.30;;;410.30;2355.20;;;;;;4990148;28;20485;-57
2022/11/08 12:12:38;;;;;;;37.80;26.45;;;410.30;2355.20;;;;;;4990526;28;20130;-59
2022/11/08 12:15:10;;;;;;;25.98;18.63;;;410.30;2355.20;;;;;;4990294;28;20070;-56
2022/11/08 12:18:01;;;;;;;19.80;15.80;;;410.20;2355.20;;;;;;4990288;28;20038;-64
2022/11/08 12:20:37;;;;;;;25.35;18.55;;;410.20;2355.20;;;;;;4990137;28;20031;-58
2022/11/08 12:23:18;;;;;;;29.73;19.00;;;410.20;2355.20;;;;;;5018285;28;20041;-64
2022/11/08 12:25:54;;;;;;;27.02;18.88;;;410.20;2355.20;;;;;;5029828;28;20025;-63
2022/11/08 12:28:31;;;;;;;32.28;24.20;;;410.20;2355.20;;;;;;5029203;28;20104;-57
2022/11/08 12:31:02;;;;;;;27.10;19.55;;;410.20;2355.20;;;;;;5029120;28;20029;-56